Blackhead, Ireland
Current Conditions -  °F | °C
As of 11:00 AM on Tuesday 21 Oct 2014 (Local Time) from EINN Reporting Station
Rain Showers Rain Showers  
Wind Chill: 52°   Ceiling: Unl
Heat Index: 52°   Visibility: 6mi
Dew Point: 36°   Wind: 24mph
Humidity: 54%   Direction: 310°NW
Pressure: 30.03"   Gusts: 44mph
Location:  53.17°N, 9.33°W
Report Text: EINN 211100Z 31021G38KT 9999 -SHRA SCT020CB 11/02 Q1017 NOSIG
Loading
Personal Weather Stations






























Interactive Weather Map
Tropical Storm Tracking
New forecast layout! Learn more

10-Day Weather Forecast

Advertisements
Track Severe Weather on mobile